GSVT2: Red River, Gainesville, TX

                                SHEF ID:       GSVT2     Red River near Gainesville, TX
STATION TYPE:
Regulating: Stage = 25.00, Flow = 52941

PRECIP STAGE RIV-FLOW BAT-LOAD
in ft cfs volt
Ccp-Rev Ccp-Rev Ccp-Rev Ccp-Rev
(America/Chicago)
09/27 00:00 0.00 6.37 912 12.49
09/27 01:00 0.00 6.37 912 12.49
09/27 02:00 0.00 6.36 907 12.41
09/27 03:00 0.00 6.34 898 12.41
09/27 04:00 0.00 6.34 898 12.41
09/27 05:00 0.00 6.33 893 12.41
09/27 06:00 0.00 6.32 888 12.41
09/27 07:00 0.00 6.30 879 12.41
09/27 08:00 0.00 6.29 874 12.41
09/27 09:00 0.00 6.28 869 12.73
09/27 10:00 0.00 6.27 865 13.21
09/27 11:00 0.00 6.26 860 13.29
09/27 12:00 0.00 6.25 856 13.29
09/27 13:00 0.00 6.23 845 13.29
09/27 14:00 0.00 6.22 840 13.29
09/27 15:00 0.00 6.20 829 13.29
09/27 16:00 0.00 6.18 818 13.21
09/27 17:00 0.00 6.16 808 13.21
09/27 18:00 0.00 6.14 798 13.21
09/27 19:00 0.00 6.13 792 13.13
09/27 20:00 0.00 6.10 777 12.73
09/27 21:00 0.00 6.09 772 12.57
09/27 22:00 0.00 6.07 761 12.49
09/27 23:00 0.00 6.05 748 12.49
Data processed at Sun 28Sep2025 04:32 GMT

NOTICE: If you are parsing this page

Please convert to using our Data API. Starting January 1st, 2026 we will be migrating to: https://water.usace.army.mil with modern pages rendered in JavaScript. You will no longer be able to scrape this page! CWMSDataAPI (CDA)

Timeseries IDs (TSIDs)

TSIDs used from left to right in the data table
GAIN.Precip-Inc.Total.1Hour.1Hour.Ccp-Rev
GAIN.Stage.Inst.1Hour.0.Ccp-Rev
GAIN.Flow.Inst.1Hour.0.Ccp-Rev
GAIN.Volt-Battery Load.Inst.1Hour.0.Ccp-Rev

                            

All information presented herein is the property of the government of the United States of America and may be revised or deleted at any time without prior notice. Dissemination of this information without the expressed written consent of the Public Affairs Office, Tulsa District U.S. Army Corps of Engineers is strictly prohibited. These data are gathered electronically and, as presented, have NOT undergone any form of quality control. These data are NOT guaranteed to be valid or correct.